sensor_id;sensor_type;location;lat;lon;timestamp;P1;durP1;ratioP1;P2;durP2;ratioP2
50495;SDS011;38806;51.554;5.704;2023-07-08T00:00:43;6.43;;;3.53;;
50495;SDS011;38806;51.554;5.704;2023-07-08T00:02:45;5.97;;;3.15;;
50495;SDS011;38806;51.554;5.704;2023-07-08T00:04:46;6.72;;;3.35;;
50495;SDS011;38806;51.554;5.704;2023-07-08T00:06:46;9.10;;;4.07;;
50495;SDS011;38806;51.554;5.704;2023-07-08T00:08:46;8.25;;;3.50;;
50495;SDS011;38806;51.554;5.704;2023-07-08T00:10:46;7.05;;;3.97;;
50495;SDS011;38806;51.554;5.704;2023-07-08T00:12:48;7.90;;;4.97;;
50495;SDS011;38806;51.554;5.704;2023-07-08T00:14:49;8.15;;;4.60;;
50495;SDS011;38806;51.554;5.704;2023-07-08T00:16:49;7.47;;;4.60;;
50495;SDS011;38806;51.554;5.704;2023-07-08T00:18:49;7.90;;;4.35;;
50495;SDS011;38806;51.554;5.704;2023-07-08T00:20:50;7.10;;;3.77;;
50495;SDS011;38806;51.554;5.704;2023-07-08T00:22:50;7.03;;;4.47;;
50495;SDS011;38806;51.554;5.704;2023-07-08T00:24:50;6.93;;;4.50;;
50495;SDS011;38806;51.554;5.704;2023-07-08T00:26:50;7.13;;;4.55;;
50495;SDS011;38806;51.554;5.704;2023-07-08T00:28:51;6.28;;;3.80;;
50495;SDS011;38806;51.554;5.704;2023-07-08T00:30:51;6.00;;;3.63;;
50495;SDS011;38806;51.554;5.704;2023-07-08T00:32:53;7.13;;;3.55;;
50495;SDS011;38806;51.554;5.704;2023-07-08T00:34:53;6.40;;;4.70;;
50495;SDS011;38806;51.554;5.704;2023-07-08T00:36:54;6.70;;;4.57;;
50495;SDS011;38806;51.554;5.704;2023-07-08T00:38:54;6.43;;;4.28;;
50495;SDS011;38806;51.554;5.704;2023-07-08T00:41:06;6.97;;;4.65;;
50495;SDS011;38806;51.554;5.704;2023-07-08T00:43:07;6.22;;;4.03;;
50495;SDS011;38806;51.554;5.704;2023-07-08T00:45:13;7.18;;;4.40;;
50495;SDS011;38806;51.554;5.704;2023-07-08T00:47:15;6.20;;;3.88;;
50495;SDS011;38806;51.554;5.704;2023-07-08T00:49:21;7.10;;;3.90;;
50495;SDS011;38806;51.554;5.704;2023-07-08T00:51:23;7.28;;;4.40;;
50495;SDS011;38806;51.554;5.704;2023-07-08T00:53:27;7.53;;;4.75;;
50495;SDS011;38806;51.554;5.704;2023-07-08T00:55:28;6.13;;;4.30;;
50495;SDS011;38806;51.554;5.704;2023-07-08T00:57:29;6.00;;;3.63;;
50495;SDS011;38806;51.554;5.704;2023-07-08T00:59:42;9.95;;;4.82;;
50495;SDS011;38806;51.554;5.704;2023-07-08T01:01:43;7.57;;;4.28;;
50495;SDS011;38806;51.554;5.704;2023-07-08T01:03:51;5.95;;;4.10;;
50495;SDS011;38806;51.554;5.704;2023-07-08T01:05:53;7.18;;;3.90;;
50495;SDS011;38806;51.554;5.704;2023-07-08T01:07:59;8.02;;;4.18;;
50495;SDS011;38806;51.554;5.704;2023-07-08T01:10:03;6.90;;;3.97;;
50495;SDS011;38806;51.554;5.704;2023-07-08T01:12:05;6.93;;;4.38;;
50495;SDS011;38806;51.554;5.704;2023-07-08T01:14:09;4.57;;;3.38;;
50495;SDS011;38806;51.554;5.704;2023-07-08T01:16:11;8.10;;;4.20;;
50495;SDS011;38806;51.554;5.704;2023-07-08T01:18:11;8.57;;;3.80;;
50495;SDS011;38806;51.554;5.704;2023-07-08T01:20:16;6.68;;;4.80;;
50495;SDS011;38806;51.554;5.704;2023-07-08T01:22:16;7.32;;;4.72;;
50495;SDS011;38806;51.554;5.704;2023-07-08T01:24:16;11.13;;;5.25;;
50495;SDS011;38806;51.554;5.704;2023-07-08T01:26:17;7.38;;;3.95;;
50495;SDS011;38806;51.554;5.704;2023-07-08T01:28:17;5.53;;;3.17;;
50495;SDS011;38806;51.554;5.704;2023-07-08T01:30:18;7.63;;;3.65;;
50495;SDS011;38806;51.554;5.704;2023-07-08T01:32:18;9.27;;;3.92;;
50495;SDS011;38806;51.554;5.704;2023-07-08T01:34:19;8.35;;;3.92;;
50495;SDS011;38806;51.554;5.704;2023-07-08T01:36:19;8.55;;;4.65;;
50495;SDS011;38806;51.554;5.704;2023-07-08T01:38:21;7.13;;;3.85;;
50495;SDS011;38806;51.554;5.704;2023-07-08T01:40:24;8.60;;;4.07;;
50495;SDS011;38806;51.554;5.704;2023-07-08T01:42:25;8.80;;;4.22;;
50495;SDS011;38806;51.554;5.704;2023-07-08T01:44:32;5.78;;;3.42;;
50495;SDS011;38806;51.554;5.704;2023-07-08T01:46:32;9.07;;;4.30;;
50495;SDS011;38806;51.554;5.704;2023-07-08T01:48:33;6.90;;;4.18;;
50495;SDS011;38806;51.554;5.704;2023-07-08T01:50:38;7.43;;;3.60;;
50495;SDS011;38806;51.554;5.704;2023-07-08T01:52:39;8.55;;;3.70;;
50495;SDS011;38806;51.554;5.704;2023-07-08T01:54:40;10.05;;;4.35;;
50495;SDS011;38806;51.554;5.704;2023-07-08T01:56:40;5.70;;;4.07;;
50495;SDS011;38806;51.554;5.704;2023-07-08T01:58:40;7.03;;;4.00;;
50495;SDS011;38806;51.554;5.704;2023-07-08T02:00:41;8.73;;;3.80;;
50495;SDS011;38806;51.554;5.704;2023-07-08T02:02:42;6.38;;;4.05;;
50495;SDS011;38806;51.554;5.704;2023-07-08T02:04:42;8.10;;;4.70;;
50495;SDS011;38806;51.554;5.704;2023-07-08T02:06:42;6.78;;;4.25;;
50495;SDS011;38806;51.554;5.704;2023-07-08T02:08:43;7.28;;;4.07;;
50495;SDS011;38806;51.554;5.704;2023-07-08T02:10:43;5.50;;;3.37;;
50495;SDS011;38806;51.554;5.704;2023-07-08T02:12:44;6.95;;;4.55;;
50495;SDS011;38806;51.554;5.704;2023-07-08T02:14:44;5.78;;;3.80;;
50495;SDS011;38806;51.554;5.704;2023-07-08T02:16:44;7.15;;;3.60;;
50495;SDS011;38806;51.554;5.704;2023-07-08T02:18:44;9.15;;;4.85;;
50495;SDS011;38806;51.554;5.704;2023-07-08T02:20:45;5.65;;;3.28;;
50495;SDS011;38806;51.554;5.704;2023-07-08T02:22:45;5.90;;;3.75;;
50495;SDS011;38806;51.554;5.704;2023-07-08T02:24:45;6.65;;;4.00;;
50495;SDS011;38806;51.554;5.704;2023-07-08T02:26:45;9.37;;;4.70;;
50495;SDS011;38806;51.554;5.704;2023-07-08T02:28:47;5.93;;;3.30;;
50495;SDS011;38806;51.554;5.704;2023-07-08T02:30:47;6.93;;;3.65;;
50495;SDS011;38806;51.554;5.704;2023-07-08T02:32:47;11.30;;;4.57;;
50495;SDS011;38806;51.554;5.704;2023-07-08T02:34:56;8.55;;;4.45;;
50495;SDS011;38806;51.554;5.704;2023-07-08T02:36:56;4.47;;;3.17;;
50495;SDS011;38806;51.554;5.704;2023-07-08T02:38:56;6.53;;;4.37;;
50495;SDS011;38806;51.554;5.704;2023-07-08T02:40:57;7.72;;;4.35;;
50495;SDS011;38806;51.554;5.704;2023-07-08T02:42:57;8.80;;;4.65;;
50495;SDS011;38806;51.554;5.704;2023-07-08T02:44:57;6.93;;;4.00;;
50495;SDS011;38806;51.554;5.704;2023-07-08T02:46:58;5.78;;;3.78;;
50495;SDS011;38806;51.554;5.704;2023-07-08T02:48:58;6.72;;;4.68;;
50495;SDS011;38806;51.554;5.704;2023-07-08T02:51:01;9.57;;;4.70;;
50495;SDS011;38806;51.554;5.704;2023-07-08T02:53:01;6.40;;;4.47;;
50495;SDS011;38806;51.554;5.704;2023-07-08T02:55:03;6.78;;;4.10;;
50495;SDS011;38806;51.554;5.704;2023-07-08T02:57:03;8.18;;;4.40;;
50495;SDS011;38806;51.554;5.704;2023-07-08T02:59:03;9.25;;;4.30;;
50495;SDS011;38806;51.554;5.704;2023-07-08T03:01:03;7.03;;;5.07;;
50495;SDS011;38806;51.554;5.704;2023-07-08T03:03:06;7.30;;;4.32;;
50495;SDS011;38806;51.554;5.704;2023-07-08T03:05:06;7.57;;;3.85;;
50495;SDS011;38806;51.554;5.704;2023-07-08T03:07:07;8.18;;;4.40;;
50495;SDS011;38806;51.554;5.704;2023-07-08T03:09:12;8.18;;;4.63;;
50495;SDS011;38806;51.554;5.704;2023-07-08T03:11:12;5.82;;;4.25;;
50495;SDS011;38806;51.554;5.704;2023-07-08T03:13:13;6.28;;;3.90;;
50495;SDS011;38806;51.554;5.704;2023-07-08T03:15:13;6.07;;;4.53;;
50495;SDS011;38806;51.554;5.704;2023-07-08T03:17:13;6.60;;;4.38;;
50495;SDS011;38806;51.554;5.704;2023-07-08T03:19:13;8.05;;;5.80;;
50495;SDS011;38806;51.554;5.704;2023-07-08T03:21:15;6.50;;;4.60;;
50495;SDS011;38806;51.554;5.704;2023-07-08T03:23:16;7.25;;;4.40;;
50495;SDS011;38806;51.554;5.704;2023-07-08T03:25:16;11.00;;;4.30;;
50495;SDS011;38806;51.554;5.704;2023-07-08T03:27:19;5.95;;;4.20;;
50495;SDS011;38806;51.554;5.704;2023-07-08T03:29:20;7.43;;;4.53;;
50495;SDS011;38806;51.554;5.704;2023-07-08T03:31:21;7.38;;;5.10;;
50495;SDS011;38806;51.554;5.704;2023-07-08T03:33:21;7.38;;;4.43;;
50495;SDS011;38806;51.554;5.704;2023-07-08T03:35:22;8.23;;;4.15;;
50495;SDS011;38806;51.554;5.704;2023-07-08T03:37:22;8.63;;;4.93;;
50495;SDS011;38806;51.554;5.704;2023-07-08T03:39:23;7.78;;;5.10;;
50495;SDS011;38806;51.554;5.704;2023-07-08T03:41:23;8.55;;;4.70;;
50495;SDS011;38806;51.554;5.704;2023-07-08T03:43:24;9.20;;;5.38;;
50495;SDS011;38806;51.554;5.704;2023-07-08T03:45:25;8.55;;;4.95;;
50495;SDS011;38806;51.554;5.704;2023-07-08T03:47:25;9.50;;;5.10;;
50495;SDS011;38806;51.554;5.704;2023-07-08T03:49:25;8.63;;;5.40;;
50495;SDS011;38806;51.554;5.704;2023-07-08T03:51:26;11.48;;;5.63;;
50495;SDS011;38806;51.554;5.704;2023-07-08T03:53:27;8.23;;;4.68;;
50495;SDS011;38806;51.554;5.704;2023-07-08T03:55:27;7.68;;;5.15;;
50495;SDS011;38806;51.554;5.704;2023-07-08T03:57:28;6.88;;;4.88;;
50495;SDS011;38806;51.554;5.704;2023-07-08T03:59:28;5.85;;;4.47;;
50495;SDS011;38806;51.554;5.704;2023-07-08T04:01:28;8.10;;;4.80;;
50495;SDS011;38806;51.554;5.704;2023-07-08T04:03:29;7.70;;;5.03;;
50495;SDS011;38806;51.554;5.704;2023-07-08T04:05:30;9.80;;;4.63;;
50495;SDS011;38806;51.554;5.704;2023-07-08T04:07:30;7.05;;;4.68;;
50495;SDS011;38806;51.554;5.704;2023-07-08T04:09:30;8.18;;;4.60;;
50495;SDS011;38806;51.554;5.704;2023-07-08T04:11:30;13.20;;;5.45;;
50495;SDS011;38806;51.554;5.704;2023-07-08T04:13:31;6.72;;;4.60;;
50495;SDS011;38806;51.554;5.704;2023-07-08T04:15:31;7.20;;;5.18;;
50495;SDS011;38806;51.554;5.704;2023-07-08T04:17:31;8.48;;;6.22;;
50495;SDS011;38806;51.554;5.704;2023-07-08T04:19:32;7.10;;;4.63;;
50495;SDS011;38806;51.554;5.704;2023-07-08T04:21:32;10.75;;;6.38;;
50495;SDS011;38806;51.554;5.704;2023-07-08T04:23:32;7.05;;;4.45;;
50495;SDS011;38806;51.554;5.704;2023-07-08T04:25:32;10.15;;;5.47;;
50495;SDS011;38806;51.554;5.704;2023-07-08T04:27:33;7.32;;;4.63;;
50495;SDS011;38806;51.554;5.704;2023-07-08T04:29:33;8.05;;;4.95;;
50495;SDS011;38806;51.554;5.704;2023-07-08T04:31:34;10.50;;;5.63;;
50495;SDS011;38806;51.554;5.704;2023-07-08T04:33:35;7.38;;;5.00;;
50495;SDS011;38806;51.554;5.704;2023-07-08T04:35:35;8.45;;;5.03;;
50495;SDS011;38806;51.554;5.704;2023-07-08T04:37:38;8.13;;;5.13;;
50495;SDS011;38806;51.554;5.704;2023-07-08T04:39:38;7.18;;;4.43;;
50495;SDS011;38806;51.554;5.704;2023-07-08T04:41:39;10.50;;;5.32;;
50495;SDS011;38806;51.554;5.704;2023-07-08T04:43:40;10.05;;;5.70;;
50495;SDS011;38806;51.554;5.704;2023-07-08T04:45:41;7.88;;;4.97;;
50495;SDS011;38806;51.554;5.704;2023-07-08T04:47:42;10.43;;;5.30;;
50495;SDS011;38806;51.554;5.704;2023-07-08T04:49:43;6.25;;;4.57;;
50495;SDS011;38806;51.554;5.704;2023-07-08T04:51:43;7.72;;;4.90;;
50495;SDS011;38806;51.554;5.704;2023-07-08T04:53:43;6.40;;;4.33;;
50495;SDS011;38806;51.554;5.704;2023-07-08T04:55:45;10.50;;;4.83;;
50495;SDS011;38806;51.554;5.704;2023-07-08T04:57:46;11.25;;;5.97;;
50495;SDS011;38806;51.554;5.704;2023-07-08T04:59:46;7.60;;;5.07;;
50495;SDS011;38806;51.554;5.704;2023-07-08T05:01:47;13.02;;;5.53;;
50495;SDS011;38806;51.554;5.704;2023-07-08T05:03:47;7.78;;;5.30;;
50495;SDS011;38806;51.554;5.704;2023-07-08T05:05:47;7.07;;;5.00;;
50495;SDS011;38806;51.554;5.704;2023-07-08T05:07:48;9.60;;;5.18;;
50495;SDS011;38806;51.554;5.704;2023-07-08T05:09:49;8.75;;;4.95;;
50495;SDS011;38806;51.554;5.704;2023-07-08T05:11:49;8.68;;;5.93;;
50495;SDS011;38806;51.554;5.704;2023-07-08T05:13:50;8.35;;;5.78;;
50495;SDS011;38806;51.554;5.704;2023-07-08T05:15:50;8.68;;;5.85;;
50495;SDS011;38806;51.554;5.704;2023-07-08T05:17:50;8.90;;;5.93;;
50495;SDS011;38806;51.554;5.704;2023-07-08T05:19:51;9.60;;;5.93;;
50495;SDS011;38806;51.554;5.704;2023-07-08T05:21:51;8.98;;;6.28;;
50495;SDS011;38806;51.554;5.704;2023-07-08T05:23:53;9.50;;;6.20;;
50495;SDS011;38806;51.554;5.704;2023-07-08T05:25:53;8.98;;;5.78;;
50495;SDS011;38806;51.554;5.704;2023-07-08T05:27:54;9.13;;;6.25;;
50495;SDS011;38806;51.554;5.704;2023-07-08T05:29:54;12.02;;;6.68;;
50495;SDS011;38806;51.554;5.704;2023-07-08T05:31:54;11.25;;;7.20;;
50495;SDS011;38806;51.554;5.704;2023-07-08T05:33:54;9.88;;;6.90;;
50495;SDS011;38806;51.554;5.704;2023-07-08T05:35:55;9.00;;;5.83;;
50495;SDS011;38806;51.554;5.704;2023-07-08T05:37:55;11.43;;;7.43;;
50495;SDS011;38806;51.554;5.704;2023-07-08T05:39:55;9.20;;;6.25;;
50495;SDS011;38806;51.554;5.704;2023-07-08T05:41:56;9.90;;;6.72;;
50495;SDS011;38806;51.554;5.704;2023-07-08T05:43:56;8.48;;;6.38;;
50495;SDS011;38806;51.554;5.704;2023-07-08T05:45:57;9.98;;;6.38;;
50495;SDS011;38806;51.554;5.704;2023-07-08T05:47:57;12.82;;;6.60;;
50495;SDS011;38806;51.554;5.704;2023-07-08T05:49:57;8.88;;;5.90;;
50495;SDS011;38806;51.554;5.704;2023-07-08T05:51:58;11.80;;;6.93;;
50495;SDS011;38806;51.554;5.704;2023-07-08T05:53:58;7.32;;;5.45;;
50495;SDS011;38806;51.554;5.704;2023-07-08T05:55:58;11.15;;;6.25;;
50495;SDS011;38806;51.554;5.704;2023-07-08T05:57:58;8.33;;;6.30;;
50495;SDS011;38806;51.554;5.704;2023-07-08T05:59:58;11.07;;;6.37;;
50495;SDS011;38806;51.554;5.704;2023-07-08T06:01:59;12.77;;;7.47;;
50495;SDS011;38806;51.554;5.704;2023-07-08T06:03:59;10.13;;;7.00;;
50495;SDS011;38806;51.554;5.704;2023-07-08T06:05:59;10.60;;;7.28;;
50495;SDS011;38806;51.554;5.704;2023-07-08T06:08:01;10.43;;;7.15;;
50495;SDS011;38806;51.554;5.704;2023-07-08T06:10:01;11.50;;;6.75;;
50495;SDS011;38806;51.554;5.704;2023-07-08T06:12:02;11.50;;;7.60;;
50495;SDS011;38806;51.554;5.704;2023-07-08T06:14:02;10.65;;;7.32;;
50495;SDS011;38806;51.554;5.704;2023-07-08T06:16:03;11.07;;;8.18;;
50495;SDS011;38806;51.554;5.704;2023-07-08T06:18:03;11.20;;;6.40;;
50495;SDS011;38806;51.554;5.704;2023-07-08T06:20:04;8.68;;;6.97;;
50495;SDS011;38806;51.554;5.704;2023-07-08T06:22:04;12.45;;;7.82;;
50495;SDS011;38806;51.554;5.704;2023-07-08T06:24:05;9.27;;;7.07;;
50495;SDS011;38806;51.554;5.704;2023-07-08T06:26:05;10.43;;;6.93;;
50495;SDS011;38806;51.554;5.704;2023-07-08T06:28:05;10.07;;;6.85;;
50495;SDS011;38806;51.554;5.704;2023-07-08T06:30:07;10.93;;;6.75;;
50495;SDS011;38806;51.554;5.704;2023-07-08T06:32:08;11.63;;;6.88;;
50495;SDS011;38806;51.554;5.704;2023-07-08T06:34:08;10.80;;;6.95;;
50495;SDS011;38806;51.554;5.704;2023-07-08T06:36:09;9.93;;;5.97;;
50495;SDS011;38806;51.554;5.704;2023-07-08T06:38:10;11.10;;;7.05;;
50495;SDS011;38806;51.554;5.704;2023-07-08T06:40:10;12.50;;;6.38;;
50495;SDS011;38806;51.554;5.704;2023-07-08T06:42:10;10.32;;;6.28;;
50495;SDS011;38806;51.554;5.704;2023-07-08T06:44:11;13.55;;;7.38;;
50495;SDS011;38806;51.554;5.704;2023-07-08T06:46:11;12.55;;;7.00;;
50495;SDS011;38806;51.554;5.704;2023-07-08T06:48:11;13.13;;;7.25;;
50495;SDS011;38806;51.554;5.704;2023-07-08T06:50:12;12.63;;;7.27;;
50495;SDS011;38806;51.554;5.704;2023-07-08T06:52:12;11.40;;;6.80;;
50495;SDS011;38806;51.554;5.704;2023-07-08T06:54:12;9.80;;;7.22;;
50495;SDS011;38806;51.554;5.704;2023-07-08T06:56:12;8.83;;;5.77;;
50495;SDS011;38806;51.554;5.704;2023-07-08T06:58:13;11.57;;;7.03;;
50495;SDS011;38806;51.554;5.704;2023-07-08T07:00:13;7.65;;;5.28;;
50495;SDS011;38806;51.554;5.704;2023-07-08T07:02:13;10.98;;;6.30;;
50495;SDS011;38806;51.554;5.704;2023-07-08T07:04:14;11.93;;;6.28;;
50495;SDS011;38806;51.554;5.704;2023-07-08T07:06:14;11.87;;;6.33;;
50495;SDS011;38806;51.554;5.704;2023-07-08T07:08:14;11.80;;;6.27;;
50495;SDS011;38806;51.554;5.704;2023-07-08T07:10:14;10.77;;;6.77;;
50495;SDS011;38806;51.554;5.704;2023-07-08T07:12:14;10.48;;;5.65;;
50495;SDS011;38806;51.554;5.704;2023-07-08T07:14:15;9.88;;;6.43;;
50495;SDS011;38806;51.554;5.704;2023-07-08T07:16:15;14.77;;;7.07;;
50495;SDS011;38806;51.554;5.704;2023-07-08T07:18:15;10.40;;;5.78;;
50495;SDS011;38806;51.554;5.704;2023-07-08T07:20:15;10.03;;;6.60;;
50495;SDS011;38806;51.554;5.704;2023-07-08T07:22:16;9.57;;;5.80;;
50495;SDS011;38806;51.554;5.704;2023-07-08T07:24:16;7.90;;;5.18;;
50495;SDS011;38806;51.554;5.704;2023-07-08T07:26:16;8.37;;;5.63;;
50495;SDS011;38806;51.554;5.704;2023-07-08T07:28:16;11.68;;;5.72;;
50495;SDS011;38806;51.554;5.704;2023-07-08T07:30:17;13.95;;;6.13;;
50495;SDS011;38806;51.554;5.704;2023-07-08T07:32:17;11.38;;;6.55;;
50495;SDS011;38806;51.554;5.704;2023-07-08T07:34:18;8.82;;;5.78;;
50495;SDS011;38806;51.554;5.704;2023-07-08T07:36:18;10.07;;;6.38;;
50495;SDS011;38806;51.554;5.704;2023-07-08T07:38:18;10.77;;;6.43;;
50495;SDS011;38806;51.554;5.704;2023-07-08T07:40:19;9.90;;;6.00;;
50495;SDS011;38806;51.554;5.704;2023-07-08T07:42:19;7.93;;;5.23;;
50495;SDS011;38806;51.554;5.704;2023-07-08T07:44:19;9.07;;;5.45;;
50495;SDS011;38806;51.554;5.704;2023-07-08T07:46:20;10.67;;;6.73;;
50495;SDS011;38806;51.554;5.704;2023-07-08T07:48:20;8.90;;;6.57;;
50495;SDS011;38806;51.554;5.704;2023-07-08T07:50:20;11.35;;;6.15;;
50495;SDS011;38806;51.554;5.704;2023-07-08T07:52:20;9.83;;;5.20;;
50495;SDS011;38806;51.554;5.704;2023-07-08T07:54:24;9.30;;;5.60;;
50495;SDS011;38806;51.554;5.704;2023-07-08T07:56:24;8.90;;;4.93;;
50495;SDS011;38806;51.554;5.704;2023-07-08T07:58:24;7.70;;;5.57;;
50495;SDS011;38806;51.554;5.704;2023-07-08T08:00:25;9.85;;;6.35;;
50495;SDS011;38806;51.554;5.704;2023-07-08T08:02:25;10.10;;;6.00;;
50495;SDS011;38806;51.554;5.704;2023-07-08T08:04:25;11.10;;;5.63;;
50495;SDS011;38806;51.554;5.704;2023-07-08T08:06:25;12.50;;;6.80;;
50495;SDS011;38806;51.554;5.704;2023-07-08T08:08:26;9.80;;;5.90;;
50495;SDS011;38806;51.554;5.704;2023-07-08T08:10:26;8.88;;;5.68;;
50495;SDS011;38806;51.554;5.704;2023-07-08T08:12:26;11.07;;;5.73;;
50495;SDS011;38806;51.554;5.704;2023-07-08T08:14:27;12.43;;;6.67;;
50495;SDS011;38806;51.554;5.704;2023-07-08T08:16:27;9.43;;;5.60;;
50495;SDS011;38806;51.554;5.704;2023-07-08T08:18:27;11.80;;;6.07;;
50495;SDS011;38806;51.554;5.704;2023-07-08T08:20:28;9.70;;;5.70;;
50495;SDS011;38806;51.554;5.704;2023-07-08T08:22:28;9.90;;;6.35;;
50495;SDS011;38806;51.554;5.704;2023-07-08T08:24:28;10.87;;;6.83;;
50495;SDS011;38806;51.554;5.704;2023-07-08T08:26:29;8.83;;;6.37;;
50495;SDS011;38806;51.554;5.704;2023-07-08T08:28:29;9.33;;;6.27;;
50495;SDS011;38806;51.554;5.704;2023-07-08T08:30:29;10.67;;;6.33;;
50495;SDS011;38806;51.554;5.704;2023-07-08T08:32:29;11.67;;;5.93;;
50495;SDS011;38806;51.554;5.704;2023-07-08T08:34:29;9.50;;;5.90;;
50495;SDS011;38806;51.554;5.704;2023-07-08T08:36:31;11.13;;;5.63;;
50495;SDS011;38806;51.554;5.704;2023-07-08T08:38:32;8.93;;;6.20;;
50495;SDS011;38806;51.554;5.704;2023-07-08T08:40:32;9.23;;;6.47;;
50495;SDS011;38806;51.554;5.704;2023-07-08T08:42:40;8.35;;;5.80;;
50495;SDS011;38806;51.554;5.704;2023-07-08T08:44:41;9.25;;;6.15;;
50495;SDS011;38806;51.554;5.704;2023-07-08T08:46:48;9.05;;;5.68;;
50495;SDS011;38806;51.554;5.704;2023-07-08T08:48:51;9.93;;;5.93;;
50495;SDS011;38806;51.554;5.704;2023-07-08T08:50:58;10.48;;;5.63;;
50495;SDS011;38806;51.554;5.704;2023-07-08T08:53:01;9.15;;;6.03;;
50495;SDS011;38806;51.554;5.704;2023-07-08T08:55:04;8.07;;;5.55;;
50495;SDS011;38806;51.554;5.704;2023-07-08T08:57:20;9.55;;;6.32;;
50495;SDS011;38806;51.554;5.704;2023-07-08T09:01:25;10.10;;;6.28;;
50495;SDS011;38806;51.554;5.704;2023-07-08T09:03:39;11.97;;;6.93;;
50495;SDS011;38806;51.554;5.704;2023-07-08T09:05:43;7.83;;;6.63;;
50495;SDS011;38806;51.554;5.704;2023-07-08T09:10:04;12.52;;;6.07;;
50495;SDS011;38806;51.554;5.704;2023-07-08T09:12:13;9.85;;;7.07;;
50495;SDS011;38806;51.554;5.704;2023-07-08T09:16:24;9.73;;;6.23;;
50495;SDS011;38806;51.554;5.704;2023-07-08T09:18:27;9.10;;;6.57;;
50495;SDS011;38806;51.554;5.704;2023-07-08T09:20:30;11.93;;;7.53;;
50495;SDS011;38806;51.554;5.704;2023-07-08T09:26:37;12.97;;;7.60;;
50495;SDS011;38806;51.554;5.704;2023-07-08T09:28:41;10.93;;;6.90;;
50495;SDS011;38806;51.554;5.704;2023-07-08T09:30:42;11.75;;;6.88;;
50495;SDS011;38806;51.554;5.704;2023-07-08T09:32:46;9.38;;;7.05;;
50495;SDS011;38806;51.554;5.704;2023-07-08T09:34:50;10.02;;;7.13;;
50495;SDS011;38806;51.554;5.704;2023-07-08T09:36:51;9.93;;;6.68;;
50495;SDS011;38806;51.554;5.704;2023-07-08T09:38:51;10.75;;;7.75;;
50495;SDS011;38806;51.554;5.704;2023-07-08T09:40:52;11.07;;;7.17;;
50495;SDS011;38806;51.554;5.704;2023-07-08T09:43:01;9.43;;;7.15;;
50495;SDS011;38806;51.554;5.704;2023-07-08T09:45:11;9.48;;;7.10;;
50495;SDS011;38806;51.554;5.704;2023-07-08T09:47:25;12.48;;;6.75;;
50495;SDS011;38806;51.554;5.704;2023-07-08T09:49:31;8.60;;;6.53;;
50495;SDS011;38806;51.554;5.704;2023-07-08T09:51:32;10.18;;;6.70;;
50495;SDS011;38806;51.554;5.704;2023-07-08T09:53:33;11.57;;;7.57;;
50495;SDS011;38806;51.554;5.704;2023-07-08T09:55:33;9.18;;;7.55;;
50495;SDS011;38806;51.554;5.704;2023-07-08T09:57:33;10.30;;;6.90;;
50495;SDS011;38806;51.554;5.704;2023-07-08T09:59:37;12.40;;;7.32;;
50495;SDS011;38806;51.554;5.704;2023-07-08T10:01:39;9.63;;;7.57;;
50495;SDS011;38806;51.554;5.704;2023-07-08T10:03:40;10.55;;;7.13;;
50495;SDS011;38806;51.554;5.704;2023-07-08T10:05:41;10.48;;;6.80;;
50495;SDS011;38806;51.554;5.704;2023-07-08T10:07:43;13.23;;;7.35;;
50495;SDS011;38806;51.554;5.704;2023-07-08T10:09:44;22.48;;;8.45;;
50495;SDS011;38806;51.554;5.704;2023-07-08T10:11:52;10.40;;;7.88;;
50495;SDS011;38806;51.554;5.704;2023-07-08T10:15:59;11.88;;;7.32;;
50495;SDS011;38806;51.554;5.704;2023-07-08T10:18:03;10.15;;;6.90;;
50495;SDS011;38806;51.554;5.704;2023-07-08T10:20:07;10.35;;;7.50;;
50495;SDS011;38806;51.554;5.704;2023-07-08T10:26:27;11.13;;;7.50;;
50495;SDS011;38806;51.554;5.704;2023-07-08T10:28:31;9.35;;;7.03;;
50495;SDS011;38806;51.554;5.704;2023-07-08T10:30:44;11.57;;;8.23;;
50495;SDS011;38806;51.554;5.704;2023-07-08T10:37:24;10.35;;;7.22;;
50495;SDS011;38806;51.554;5.704;2023-07-08T10:39:59;9.27;;;7.18;;
50495;SDS011;38806;51.554;5.704;2023-07-08T10:44:12;13.90;;;7.93;;
50495;SDS011;38806;51.554;5.704;2023-07-08T10:50:57;11.50;;;8.13;;
50495;SDS011;38806;51.554;5.704;2023-07-08T10:55:11;13.60;;;7.63;;
50495;SDS011;38806;51.554;5.704;2023-07-08T11:05:50;11.73;;;8.37;;
50495;SDS011;38806;51.554;5.704;2023-07-08T11:12:28;10.43;;;7.55;;
50495;SDS011;38806;51.554;5.704;2023-07-08T11:14:39;9.18;;;7.18;;
50495;SDS011;38806;51.554;5.704;2023-07-08T11:16:42;9.73;;;7.90;;
50495;SDS011;38806;51.554;5.704;2023-07-08T11:21:02;9.32;;;7.50;;
50495;SDS011;38806;51.554;5.704;2023-07-08T11:23:14;12.43;;;7.78;;
50495;SDS011;38806;51.554;5.704;2023-07-08T11:25:19;10.98;;;7.68;;
50495;SDS011;38806;51.554;5.704;2023-07-08T11:27:31;10.15;;;7.93;;
50495;SDS011;38806;51.554;5.704;2023-07-08T11:31:45;9.40;;;6.90;;
50495;SDS011;38806;51.554;5.704;2023-07-08T11:33:46;9.55;;;7.53;;
50495;SDS011;38806;51.554;5.704;2023-07-08T11:35:48;10.40;;;7.60;;
50495;SDS011;38806;51.554;5.704;2023-07-08T11:37:49;8.40;;;6.82;;
50495;SDS011;38806;51.554;5.704;2023-07-08T11:39:54;9.30;;;7.63;;
50495;SDS011;38806;51.554;5.704;2023-07-08T11:42:03;10.80;;;7.47;;
50495;SDS011;38806;51.554;5.704;2023-07-08T11:44:04;12.48;;;7.30;;
50495;SDS011;38806;51.554;5.704;2023-07-08T11:46:05;9.13;;;7.72;;
50495;SDS011;38806;51.554;5.704;2023-07-08T11:48:18;11.43;;;7.50;;
50495;SDS011;38806;51.554;5.704;2023-07-08T11:52:24;10.35;;;7.15;;
50495;SDS011;38806;51.554;5.704;2023-07-08T11:54:30;9.50;;;7.10;;
50495;SDS011;38806;51.554;5.704;2023-07-08T11:56:50;13.73;;;7.25;;
50495;SDS011;38806;51.554;5.704;2023-07-08T11:58:59;10.80;;;6.70;;
50495;SDS011;38806;51.554;5.704;2023-07-08T12:01:04;9.52;;;7.18;;
50495;SDS011;38806;51.554;5.704;2023-07-08T12:03:20;10.18;;;7.10;;
50495;SDS011;38806;51.554;5.704;2023-07-08T12:05:31;9.07;;;6.72;;
50495;SDS011;38806;51.554;5.704;2023-07-08T12:07:33;12.27;;;8.40;;
50495;SDS011;38806;51.554;5.704;2023-07-08T12:09:37;9.43;;;5.75;;
50495;SDS011;38806;51.554;5.704;2023-07-08T12:11:38;11.80;;;9.35;;
50495;SDS011;38806;51.554;5.704;2023-07-08T12:13:39;8.68;;;6.97;;
50495;SDS011;38806;51.554;5.704;2023-07-08T12:15:39;10.53;;;6.97;;
50495;SDS011;38806;51.554;5.704;2023-07-08T12:17:40;8.57;;;5.90;;
50495;SDS011;38806;51.554;5.704;2023-07-08T12:19:41;9.35;;;6.32;;
50495;SDS011;38806;51.554;5.704;2023-07-08T12:21:42;9.45;;;7.68;;
50495;SDS011;38806;51.554;5.704;2023-07-08T12:23:45;11.07;;;7.73;;
50495;SDS011;38806;51.554;5.704;2023-07-08T12:25:46;10.18;;;6.53;;
50495;SDS011;38806;51.554;5.704;2023-07-08T12:27:46;9.65;;;7.25;;
50495;SDS011;38806;51.554;5.704;2023-07-08T12:29:47;9.82;;;6.70;;
50495;SDS011;38806;51.554;5.704;2023-07-08T12:31:47;10.30;;;6.73;;
50495;SDS011;38806;51.554;5.704;2023-07-08T12:33:48;10.68;;;7.10;;
50495;SDS011;38806;51.554;5.704;2023-07-08T12:35:49;8.40;;;6.63;;
50495;SDS011;38806;51.554;5.704;2023-07-08T12:37:54;9.27;;;6.68;;
50495;SDS011;38806;51.554;5.704;2023-07-08T12:39:55;9.85;;;6.82;;
50495;SDS011;38806;51.554;5.704;2023-07-08T12:41:56;8.35;;;6.85;;
50495;SDS011;38806;51.554;5.704;2023-07-08T12:43:57;10.13;;;5.65;;
50495;SDS011;38806;51.554;5.704;2023-07-08T12:45:58;8.75;;;5.95;;
50495;SDS011;38806;51.554;5.704;2023-07-08T12:47:58;7.70;;;5.53;;
50495;SDS011;38806;51.554;5.704;2023-07-08T12:49:59;8.67;;;6.30;;
50495;SDS011;38806;51.554;5.704;2023-07-08T12:51:59;11.03;;;6.83;;
50495;SDS011;38806;51.554;5.704;2023-07-08T12:53:59;7.67;;;5.93;;
50495;SDS011;38806;51.554;5.704;2023-07-08T12:55:59;8.90;;;6.13;;
50495;SDS011;38806;51.554;5.704;2023-07-08T12:58:00;6.47;;;5.45;;
50495;SDS011;38806;51.554;5.704;2023-07-08T13:00:01;7.57;;;5.68;;